Time;durP1;ratioP1;P1;durP2;ratioP2;P2;SDS_P1;SDS_P2;PMS_P1;PMS_P2;Temp;Humidity;BMP_temperature;BMP_pressure;BME280_temperature;BME280_humidity;BME280_pressure;Samples;Min_cycle;Max_cycle;Signal;HPM_P1;HPM_P2
2021/04/29 00:01:48;;;;;;;15.02;10.70;;;12.20;78.70;;;;;;5018507;28;20024;-92
2021/04/29 00:04:15;;;;;;;17.25;10.95;;;12.20;79.10;;;;;;5020960;28;20043;-92
2021/04/29 00:06:41;;;;;;;17.45;10.48;;;12.10;79.40;;;;;;5022293;28;20116;-92
2021/04/29 00:09:07;;;;;;;15.30;10.13;;;12.10;80.00;;;;;;5022151;28;20536;-91
2021/04/29 00:11:33;;;;;;;15.80;9.82;;;12.10;80.80;;;;;;5022177;28;20119;-92
2021/04/29 00:13:59;;;;;;;14.55;10.88;;;12.10;81.00;;;;;;5023073;28;20025;-93
2021/04/29 00:16:25;;;;;;;13.25;9.80;;;12.10;82.30;;;;;;5021861;28;20025;-92
2021/04/29 00:18:51;;;;;;;20.30;10.63;;;12.10;82.40;;;;;;5021976;28;20027;-92
2021/04/29 00:21:17;;;;;;;18.58;10.35;;;12.20;82.60;;;;;;5022124;28;20021;-92
2021/04/29 00:23:43;;;;;;;15.30;10.57;;;12.20;83.00;;;;;;5021857;28;20017;-92
2021/04/29 00:26:08;;;;;;;18.60;10.77;;;12.10;84.00;;;;;;5021802;28;20536;-92
2021/04/29 00:28:34;;;;;;;20.83;10.85;;;12.00;85.20;;;;;;5021704;28;20029;-93
2021/04/29 00:31:00;;;;;;;23.85;10.52;;;12.10;85.90;;;;;;5021894;28;20045;-92
2021/04/29 00:33:26;;;;;;;15.30;9.18;;;12.20;85.90;;;;;;5021921;28;20024;-92
2021/04/29 00:35:51;;;;;;;12.95;10.63;;;12.30;86.30;;;;;;5022158;28;20116;-94
2021/04/29 00:38:17;;;;;;;16.48;10.02;;;12.40;85.80;;;;;;5022197;28;20486;-93
2021/04/29 00:40:43;;;;;;;15.77;9.75;;;12.40;86.30;;;;;;5021880;28;20021;-92
2021/04/29 00:43:11;;;;;;;16.17;9.75;;;12.50;86.30;;;;;;5022061;28;20098;-91
2021/04/29 00:45:37;;;;;;;12.48;9.60;;;12.50;87.20;;;;;;5021579;28;20024;-92
2021/04/29 00:48:03;;;;;;;16.40;9.93;;;12.60;86.80;;;;;;5021764;28;20501;-93
2021/04/29 00:50:28;;;;;;;13.05;9.52;;;12.60;87.60;;;;;;5021632;28;20379;-92
2021/04/29 00:52:54;;;;;;;21.27;10.40;;;12.60;88.80;;;;;;5021886;28;20494;-93
2021/04/29 00:55:20;;;;;;;27.42;10.27;;;12.50;89.70;;;;;;5021246;28;20029;-93
2021/04/29 00:57:45;;;;;;;15.38;9.50;;;12.50;90.60;;;;;;5021069;28;20071;-92
2021/04/29 01:00:12;;;;;;;17.08;9.35;;;12.40;91.10;;;;;;5021446;28;20029;-92
2021/04/29 01:02:47;;;;;;;12.15;8.85;;;12.40;91.90;;;;;;5020957;28;20029;-94
2021/04/29 01:05:18;;;;;;;13.75;8.95;;;12.40;92.30;;;;;;5021018;28;20021;-92
2021/04/29 01:07:50;;;;;;;15.85;8.57;;;12.60;92.10;;;;;;5020795;28;20544;-92
2021/04/29 01:10:41;;;;;;;18.45;9.88;;;12.70;91.40;;;;;;5020412;28;20029;-92
2021/04/29 01:13:35;;;;;;;14.32;8.45;;;12.70;91.70;;;;;;5021230;28;20079;-92
2021/04/29 01:16:01;;;;;;;16.05;8.82;;;12.70;92.50;;;;;;5016767;28;20087;-93
2021/04/29 01:18:28;;;;;;;14.30;8.57;;;12.80;92.20;;;;;;5021840;28;20023;-92
2021/04/29 01:21:03;;;;;;;12.48;8.52;;;12.90;91.10;;;;;;5022241;28;20444;-92
2021/04/29 01:23:47;;;;;;;12.18;8.35;;;13.00;91.00;;;;;;5021902;28;20025;-93
2021/04/29 01:26:40;;;;;;;12.73;9.15;;;13.00;91.30;;;;;;5021911;28;20025;-92
2021/04/29 01:29:21;;;;;;;13.27;8.20;;;13.00;91.60;;;;;;5020900;28;20485;-93
2021/04/29 01:31:49;;;;;;;14.77;8.40;;;12.90;92.00;;;;;;5020575;28;20029;-93
2021/04/29 01:34:19;;;;;;;13.75;8.25;;;12.90;92.40;;;;;;5020771;28;20029;-92
2021/04/29 01:36:47;;;;;;;13.35;8.15;;;12.90;92.50;;;;;;5020292;28;20406;-93
2021/04/29 01:39:14;;;;;;;9.52;7.50;;;13.00;92.90;;;;;;5020188;28;20040;-92
2021/04/29 01:41:43;;;;;;;14.73;8.05;;;12.90;92.80;;;;;;5020315;28;20021;-92
2021/04/29 01:44:10;;;;;;;11.63;8.65;;;12.80;94.00;;;;;;5020628;28;20018;-91
2021/04/29 01:46:36;;;;;;;9.57;7.57;;;12.80;94.00;;;;;;5020232;28;20436;-93
2021/04/29 01:49:05;;;;;;;13.35;7.93;;;12.80;95.30;;;;;;5020098;28;20032;-92
2021/04/29 01:51:31;;;;;;;14.95;8.20;;;13.00;94.40;;;;;;5020414;28;20494;-92
2021/04/29 01:54:00;;;;;;;11.25;7.03;;;13.00;93.50;;;;;;5020137;28;20082;-92
2021/04/29 01:56:27;;;;;;;14.80;8.13;;;13.10;94.00;;;;;;5019676;28;20465;-92
2021/04/29 01:58:53;;;;;;;12.30;8.43;;;13.10;92.80;;;;;;5019798;28;20111;-92
2021/04/29 02:01:18;;;;;;;10.13;7.63;;;13.00;93.60;;;;;;5019822;28;20115;-92
2021/04/29 02:03:44;;;;;;;14.15;7.85;;;13.00;94.10;;;;;;5019940;28;20044;-92
2021/04/29 02:06:10;;;;;;;12.52;7.18;;;12.90;94.20;;;;;;5019809;28;20028;-92
2021/04/29 02:08:35;;;;;;;13.55;7.82;;;12.90;95.00;;;;;;5019739;28;20489;-92
2021/04/29 02:11:02;;;;;;;11.48;8.18;;;12.90;95.50;;;;;;5019460;28;20029;-94
2021/04/29 02:13:30;;;;;;;13.40;8.15;;;12.80;96.20;;;;;;5019625;28;20029;-93
2021/04/29 02:16:06;;;;;;;10.10;7.68;;;12.80;95.60;;;;;;5019375;28;20029;-93
2021/04/29 02:18:33;;;;;;;10.40;7.85;;;12.70;98.00;;;;;;5019737;28;20028;-91
2021/04/29 02:21:00;;;;;;;17.67;8.38;;;12.70;97.90;;;;;;5019503;28;20068;-92
2021/04/29 02:23:27;;;;;;;14.93;8.38;;;12.70;97.60;;;;;;5019437;28;20103;-92
2021/04/29 02:25:55;;;;;;;11.23;8.07;;;12.70;98.20;;;;;;5019538;28;20492;-92
2021/04/29 02:28:21;;;;;;;12.48;8.07;;;12.60;99.00;;;;;;5019541;28;20402;-92
2021/04/29 02:30:48;;;;;;;11.80;7.28;;;12.50;99.50;;;;;;5019271;28;20456;-92
2021/04/29 02:33:15;;;;;;;15.73;8.43;;;12.40;99.90;;;;;;5019646;28;20025;-92
2021/04/29 02:35:42;;;;;;;9.13;7.03;;;12.40;99.90;;;;;;5019916;28;20025;-92
2021/04/29 02:38:08;;;;;;;10.07;8.05;;;12.40;99.90;;;;;;5020035;28;20394;-92
2021/04/29 02:40:34;;;;;;;8.73;7.20;;;12.40;99.90;;;;;;5023781;28;20021;-92
2021/04/29 02:43:00;;;;;;;11.27;6.10;;;12.50;99.90;;;;;;5030703;28;20017;-92
2021/04/29 02:45:27;;;;;;;13.68;7.00;;;12.50;99.90;;;;;;5033438;28;20021;-92
2021/04/29 02:47:53;;;;;;;7.57;6.05;;;12.50;99.90;;;;;;5023183;28;20048;-93
2021/04/29 02:50:24;;;;;;;11.13;6.57;;;12.50;99.90;;;;;;5019502;28;20481;-92
2021/04/29 02:52:52;;;;;;;14.77;6.60;;;12.50;99.80;;;;;;5019543;28;20025;-92
2021/04/29 02:55:19;;;;;;;15.05;6.32;;;12.50;99.90;;;;;;5019464;28;20021;-92
2021/04/29 02:57:44;;;;;;;9.65;5.45;;;12.50;99.90;;;;;;5019077;28;20084;-92
2021/04/29 03:00:13;;;;;;;12.15;6.30;;;12.50;99.60;;;;;;5019044;28;20052;-92
2021/04/29 03:02:39;;;;;;;11.35;5.97;;;12.50;99.60;;;;;;5018683;28;20116;-92
2021/04/29 03:05:14;;;;;;;10.88;6.45;;;12.40;99.90;;;;;;5018725;28;20074;-92
2021/04/29 03:07:42;;;;;;;6.50;5.30;;;12.30;99.90;;;;;;5018526;28;20398;-93
2021/04/29 03:10:09;;;;;;;10.82;5.38;;;12.20;99.90;;;;;;5034997;28;20025;-92
2021/04/29 03:12:35;;;;;;;12.60;6.10;;;12.20;99.90;;;;;;5018607;28;20112;-93
2021/04/29 03:15:02;;;;;;;7.35;5.55;;;12.20;99.90;;;;;;5018709;28;20106;-92
2021/04/29 03:17:27;;;;;;;12.05;5.70;;;12.20;99.90;;;;;;5018483;28;20071;-92
2021/04/29 03:19:53;;;;;;;9.57;5.35;;;12.30;99.90;;;;;;5018691;28;20498;-93
2021/04/29 03:22:21;;;;;;;7.30;5.00;;;12.30;99.90;;;;;;5018925;28;20025;-92
2021/04/29 03:24:48;;;;;;;7.72;5.65;;;12.30;99.90;;;;;;5019006;28;20048;-92
2021/04/29 03:27:17;;;;;;;5.95;4.53;;;12.30;99.90;;;;;;5019217;28;20486;-92
2021/04/29 03:29:43;;;;;;;6.22;5.00;;;12.20;99.90;;;;;;5038453;28;20033;-96
2021/04/29 03:32:09;;;;;;;7.00;4.85;;;12.20;99.90;;;;;;5019591;28;20036;-93
2021/04/29 03:34:35;;;;;;;8.68;4.95;;;12.20;99.90;;;;;;5018491;28;20032;-92
2021/04/29 03:37:00;;;;;;;10.20;6.10;;;12.30;99.90;;;;;;5018393;28;20025;-92
2021/04/29 03:39:26;;;;;;;7.38;4.97;;;12.20;99.90;;;;;;5018012;28;20029;-92
2021/04/29 03:41:52;;;;;;;8.88;5.78;;;12.20;99.90;;;;;;5018092;28;20032;-92
2021/04/29 03:44:17;;;;;;;5.35;4.72;;;12.20;99.90;;;;;;5018274;28;20025;-92
2021/04/29 03:46:43;;;;;;;11.40;6.00;;;12.10;99.90;;;;;;5018123;28;20071;-92
2021/04/29 03:49:09;;;;;;;6.40;5.70;;;12.00;99.90;;;;;;5018579;28;20028;-93
2021/04/29 03:51:35;;;;;;;6.20;5.15;;;12.00;99.90;;;;;;5017675;28;20088;-92
2021/04/29 03:54:01;;;;;;;12.05;5.63;;;12.00;99.90;;;;;;5018354;28;20079;-92
2021/04/29 03:56:26;;;;;;;7.07;5.38;;;11.90;99.90;;;;;;5017787;28;20493;-92
2021/04/29 03:58:52;;;;;;;9.30;6.22;;;12.00;99.90;;;;;;5018393;28;20021;-91
2021/04/29 04:01:18;;;;;;;9.35;5.32;;;12.00;99.90;;;;;;5018639;28;20029;-92
2021/04/29 04:03:43;;;;;;;8.80;5.22;;;12.00;99.90;;;;;;5018566;28;20053;-92
2021/04/29 04:06:10;;;;;;;10.65;5.28;;;12.00;99.90;;;;;;5019713;28;20111;-91
2021/04/29 04:08:36;;;;;;;7.93;5.75;;;12.10;99.90;;;;;;5018196;28;20029;-93
2021/04/29 04:11:02;;;;;;;7.55;5.18;;;12.00;99.90;;;;;;5017783;28;20108;-93
2021/04/29 04:13:27;;;;;;;8.73;4.63;;;12.00;99.90;;;;;;5017975;28;20120;-92
2021/04/29 04:15:53;;;;;;;8.45;5.50;;;12.00;99.90;;;;;;5018156;28;20104;-92
2021/04/29 04:18:19;;;;;;;10.43;5.70;;;11.90;99.90;;;;;;5018493;28;20021;-92
2021/04/29 04:20:44;;;;;;;8.05;5.13;;;11.80;99.90;;;;;;5018133;28;20047;-93
2021/04/29 04:23:10;;;;;;;13.20;4.95;;;11.80;99.90;;;;;;5034409;28;20029;-92
2021/04/29 04:25:36;;;;;;;8.70;4.65;;;11.90;99.90;;;;;;5017739;28;20025;-92
2021/04/29 04:28:08;;;;;;;9.07;5.72;;;11.80;99.90;;;;;;5017954;28;20617;-92
2021/04/29 04:30:37;;;;;;;10.70;4.28;;;11.80;99.90;;;;;;5018368;28;20025;-91
2021/04/29 04:33:14;;;;;;;10.07;4.28;;;11.80;99.90;;;;;;5017967;28;20071;-93
2021/04/29 04:35:40;;;;;;;8.38;4.50;;;11.70;99.90;;;;;;5018235;28;20029;-92
2021/04/29 04:38:08;;;;;;;5.28;4.05;;;11.70;99.90;;;;;;5017555;28;20017;-92
2021/04/29 04:40:34;;;;;;;4.57;3.97;;;11.80;99.90;;;;;;5017947;28;20017;-92
2021/04/29 04:42:59;;;;;;;4.30;3.20;;;11.80;99.90;;;;;;5018081;28;20021;-92
2021/04/29 04:45:25;;;;;;;5.78;3.80;;;11.70;99.90;;;;;;5017873;28;20036;-93
2021/04/29 04:47:51;;;;;;;4.70;2.85;;;11.80;99.90;;;;;;5017385;28;20490;-92
2021/04/29 04:50:16;;;;;;;9.80;3.67;;;11.80;99.90;;;;;;5019879;28;20045;-92
2021/04/29 04:52:42;;;;;;;5.90;3.42;;;11.80;99.90;;;;;;5021548;28;20414;-92
2021/04/29 04:55:08;;;;;;;10.93;3.38;;;11.80;99.90;;;;;;5021394;28;20025;-92
2021/04/29 04:57:34;;;;;;;2.85;2.55;;;11.80;99.90;;;;;;5021034;28;20029;-92
2021/04/29 05:00:00;;;;;;;6.07;2.67;;;11.90;99.90;;;;;;5021244;28;20021;-93
2021/04/29 05:02:26;;;;;;;8.25;3.00;;;12.00;99.90;;;;;;5021299;28;20040;-91
2021/04/29 05:04:51;;;;;;;2.92;2.60;;;12.00;99.90;;;;;;5021236;28;20501;-93
2021/04/29 05:07:17;;;;;;;5.03;2.88;;;12.00;99.90;;;;;;5021020;28;20063;-93
2021/04/29 05:09:43;;;;;;;4.07;2.08;;;12.10;99.90;;;;;;5021033;28;20029;-93
2021/04/29 05:12:10;;;;;;;6.13;2.28;;;12.10;99.90;;;;;;5021186;28;20029;-92
2021/04/29 05:14:36;;;;;;;9.75;2.70;;;12.10;99.90;;;;;;5021402;28;20025;-91
2021/04/29 05:17:02;;;;;;;6.40;2.38;;;12.10;99.90;;;;;;5020993;28;20057;-92
2021/04/29 05:19:28;;;;;;;9.10;2.63;;;12.10;99.90;;;;;;5021221;28;20056;-93
2021/04/29 05:21:54;;;;;;;7.47;2.42;;;12.20;99.90;;;;;;5020874;28;20539;-93
2021/04/29 05:24:20;;;;;;;3.58;2.20;;;12.30;99.90;;;;;;5021579;28;20111;-92
2021/04/29 05:26:46;;;;;;;3.05;2.42;;;12.40;99.90;;;;;;5020611;28;20070;-92
2021/04/29 05:29:12;;;;;;;12.10;2.15;;;12.50;99.90;;;;;;5020883;28;20036;-92
2021/04/29 05:31:38;;;;;;;3.97;1.90;;;12.50;99.90;;;;;;5020775;28;20538;-92
2021/04/29 05:34:07;;;;;;;3.13;2.08;;;12.60;99.90;;;;;;5037866;28;20084;-92
2021/04/29 05:36:33;;;;;;;5.35;2.53;;;12.60;99.90;;;;;;5020690;28;20029;-92
2021/04/29 05:38:59;;;;;;;4.10;1.90;;;12.80;99.80;;;;;;5020711;28;20017;-92
2021/04/29 05:41:25;;;;;;;4.22;2.55;;;12.90;98.40;;;;;;5021213;28;20078;-92
2021/04/29 05:43:50;;;;;;;6.70;1.92;;;12.70;99.00;;;;;;5021018;28;20375;-91
2021/04/29 05:46:16;;;;;;;8.23;2.38;;;12.70;99.20;;;;;;5034824;28;20031;-93
2021/04/29 05:48:42;;;;;;;10.50;2.30;;;12.70;99.90;;;;;;5020329;28;20029;-92
2021/04/29 05:51:07;;;;;;;6.18;1.70;;;12.80;99.50;;;;;;5020782;28;20025;-92
2021/04/29 05:53:33;;;;;;;11.00;2.88;;;12.80;98.60;;;;;;5030686;28;20052;-93
2021/04/29 05:55:59;;;;;;;9.52;2.80;;;12.80;98.60;;;;;;5040606;28;20031;-92
2021/04/29 05:58:25;;;;;;;7.57;2.42;;;12.90;98.60;;;;;;5026608;28;20043;-93
2021/04/29 06:00:59;;;;;;;8.23;2.63;;;12.80;98.90;;;;;;5036112;28;20029;-92
2021/04/29 06:03:48;;;;;;;16.02;2.17;;;13.00;98.60;;;;;;5059925;28;20089;-90
2021/04/29 06:06:19;;;;;;;11.05;2.97;;;13.00;97.40;;;;;;5031600;28;20028;-92
2021/04/29 06:08:54;;;;;;;3.92;1.90;;;13.10;97.50;;;;;;5020490;28;20035;-91
2021/04/29 06:11:22;;;;;;;9.02;2.22;;;13.10;96.50;;;;;;5020168;28;20052;-91
2021/04/29 06:14:11;;;;;;;28.88;2.70;;;13.00;96.10;;;;;;5020434;28;20021;-92
2021/04/29 06:16:46;;;;;;;5.20;1.65;;;13.20;95.40;;;;;;4999781;28;20057;-92
2021/04/29 06:19:15;;;;;;;10.27;1.83;;;13.20;94.20;;;;;;5028900;28;20044;-92
2021/04/29 06:21:41;;;;;;;5.82;2.08;;;13.00;94.10;;;;;;5019676;28;20426;-91
2021/04/29 06:24:07;;;;;;;20.10;2.25;;;12.90;93.60;;;;;;5019750;28;20017;-92
2021/04/29 06:26:33;;;;;;;10.75;2.78;;;12.80;93.20;;;;;;5019347;28;20336;-92
2021/04/29 06:29:12;;;;;;;24.33;2.08;;;13.00;93.00;;;;;;5020040;28;20029;-91
2021/04/29 06:32:21;;;;;;;7.95;2.42;;;12.70;91.70;;;;;;5019431;28;20049;-92
2021/04/29 06:34:47;;;;;;;7.63;1.30;;;12.90;92.50;;;;;;5021244;28;20028;-91
2021/04/29 06:37:18;;;;;;;4.97;1.80;;;13.10;91.40;;;;;;5019300;28;20567;-92
2021/04/29 06:39:57;;;;;;;4.05;1.73;;;13.10;91.20;;;;;;5019691;28;20028;-92
2021/04/29 06:42:33;;;;;;;6.80;1.70;;;13.20;91.00;;;;;;5020603;28;20063;-91
2021/04/29 06:45:02;;;;;;;22.10;2.83;;;13.10;91.70;;;;;;5019629;28;20021;-92
2021/04/29 06:47:34;;;;;;;5.93;1.30;;;13.20;92.20;;;;;;5020851;28;20075;-94
2021/04/29 06:50:22;;;;;;;1.77;1.30;;;13.20;91.90;;;;;;5023414;28;20045;-92
2021/04/29 06:53:03;;;;;;;14.68;2.05;;;13.30;91.80;;;;;;5014418;28;20074;-92
2021/04/29 06:55:52;;;;;;;3.83;1.58;;;13.40;91.90;;;;;;5042506;28;20489;-91
2021/04/29 06:58:23;;;;;;;8.30;2.10;;;13.30;92.00;;;;;;5019056;28;20508;-91
2021/04/29 07:01:04;;;;;;;12.70;2.13;;;13.00;90.20;;;;;;5030790;28;20044;-92
2021/04/29 07:03:38;;;;;;;6.47;1.73;;;12.80;88.90;;;;;;5040426;28;20059;-92
2021/04/29 07:06:30;;;;;;;3.83;1.45;;;12.80;88.10;;;;;;5035447;28;20105;-92
2021/04/29 07:09:10;;;;;;;7.15;2.30;;;12.70;88.00;;;;;;5031207;28;20020;-92
2021/04/29 07:11:41;;;;;;;17.67;2.38;;;12.70;86.30;;;;;;5027313;28;20039;-92
2021/04/29 07:14:10;;;;;;;9.18;2.00;;;12.70;84.50;;;;;;5022582;28;20491;-92
2021/04/29 07:16:42;;;;;;;12.15;2.55;;;12.60;84.30;;;;;;5028382;28;20068;-92
2021/04/29 07:19:20;;;;;;;21.27;3.33;;;12.60;84.30;;;;;;5027256;28;20091;-92
2021/04/29 07:21:59;;;;;;;10.10;2.33;;;12.60;83.00;;;;;;5045341;28;20543;-91
2021/04/29 07:24:25;;;;;;;3.90;2.17;;;12.60;81.70;;;;;;5035820;28;20033;-92
2021/04/29 07:27:10;;;;;;;9.90;3.30;;;12.60;81.60;;;;;;5037137;28;20078;-92
2021/04/29 07:29:39;;;;;;;28.15;4.10;;;12.50;81.90;;;;;;5038925;28;20452;-92
2021/04/29 07:32:19;;;;;;;5.13;2.15;;;12.40;82.30;;;;;;5021471;28;20033;-90
2021/04/29 07:34:48;;;;;;;10.85;2.35;;;12.50;80.70;;;;;;5026324;28;20043;-90
2021/04/29 07:37:14;;;;;;;9.23;2.08;;;12.50;80.90;;;;;;5021672;28;20025;-91
2021/04/29 07:39:40;;;;;;;7.72;2.50;;;12.70;80.70;;;;;;5028000;28;20549;-92
2021/04/29 07:42:06;;;;;;;3.83;1.85;;;12.70;79.50;;;;;;5033937;28;20033;-91
2021/04/29 07:44:32;;;;;;;6.43;2.33;;;12.80;79.30;;;;;;5023175;28;20027;-91
2021/04/29 07:54:35;;;;;;;9.65;2.83;;;12.70;79.30;;;;;;5040126;28;20036;-91
2021/04/29 07:57:41;;;;;;;5.00;2.63;;;13.00;79.10;;;;;;5016700;28;20108;-91
2021/04/29 08:00:22;;;;;;;19.20;2.97;;;13.00;77.50;;;;;;5033546;28;20033;-92
2021/04/29 08:03:04;;;;;;;5.40;2.60;;;12.90;77.60;;;;;;5016529;28;20303;-91
2021/04/29 08:05:38;;;;;;;17.25;3.10;;;12.80;77.80;;;;;;5032484;28;20031;-91
2021/04/29 08:08:38;;;;;;;;;;;;;;;;;;;;;
2021/04/29 08:15:30;;;;;;;9.45;2.35;;;12.60;77.00;;;;;;5050464;28;20057;-90
2021/04/29 08:18:21;;;;;;;8.60;3.53;;;12.70;77.50;;;;;;5022033;28;20575;-90
2021/04/29 08:20:47;;;;;;;14.02;3.35;;;12.80;78.00;;;;;;5045538;22;20041;-74
2021/04/29 08:23:13;;;;;;;11.75;2.58;;;12.90;76.60;;;;;;5068956;28;20095;-74
2021/04/29 08:25:39;;;;;;;26.85;4.20;;;13.00;76.00;;;;;;5072575;28;20020;-73
2021/04/29 08:28:05;;;;;;;14.95;3.50;;;13.20;76.10;;;;;;5074755;28;20016;-73
2021/04/29 08:30:31;;;;;;;5.40;3.05;;;13.10;75.70;;;;;;5073114;28;20483;-74
2021/04/29 08:33:00;;;;;;;5.90;2.88;;;12.90;76.10;;;;;;5074539;28;20472;-74
2021/04/29 08:35:26;;;;;;;16.10;2.55;;;12.60;77.10;;;;;;5073978;28;20114;-74
2021/04/29 08:37:52;;;;;;;15.30;4.43;;;12.50;78.50;;;;;;5074669;28;20032;-73
2021/04/29 08:40:20;;;;;;;12.50;3.60;;;12.40;77.90;;;;;;5074664;28;20540;-74
2021/04/29 08:42:45;;;;;;;11.60;3.08;;;12.60;78.70;;;;;;5073098;28;20420;-73
2021/04/29 08:45:13;;;;;;;6.97;3.17;;;12.60;77.80;;;;;;5074590;28;20028;-74
2021/04/29 08:47:39;;;;;;;7.30;2.92;;;12.70;77.90;;;;;;5073565;28;20103;-74
2021/04/29 08:50:07;;;;;;;5.93;3.30;;;13.00;76.80;;;;;;5072326;28;20457;-73
2021/04/29 08:52:33;;;;;;;9.77;3.53;;;13.00;74.80;;;;;;5073801;28;20042;-74
2021/04/29 08:54:58;;;;;;;11.73;3.63;;;13.20;75.00;;;;;;5074180;28;20400;-74
2021/04/29 08:57:25;;;;;;;17.90;4.07;;;13.50;73.40;;;;;;5072924;28;20431;-74
2021/04/29 08:59:52;;;;;;;11.82;4.28;;;13.60;73.50;;;;;;5072709;28;20021;-74
2021/04/29 09:02:35;;;;;;;10.85;3.78;;;13.30;73.30;;;;;;5072301;28;20550;-74
2021/04/29 09:05:16;;;;;;;11.20;3.75;;;12.90;73.90;;;;;;5069812;28;20040;-74
2021/04/29 09:08:06;;;;;;;11.10;4.45;;;12.80;74.80;;;;;;5068940;28;20028;-74
2021/04/29 09:10:39;;;;;;;13.73;4.55;;;12.80;75.00;;;;;;5074558;28;20356;-74
2021/04/29 09:13:22;;;;;;;8.30;4.80;;;13.00;74.50;;;;;;5073323;28;20415;-73
2021/04/29 09:15:50;;;;;;;10.55;4.90;;;12.80;73.30;;;;;;5072720;28;20690;-75
2021/04/29 09:18:20;;;;;;;8.23;4.30;;;12.90;73.30;;;;;;5071958;28;20032;-75
2021/04/29 09:20:57;;;;;;;14.63;5.93;;;13.20;72.90;;;;;;5072655;28;20135;-75
2021/04/29 09:23:35;;;;;;;22.30;11.25;;;13.30;72.10;;;;;;5073964;28;20024;-76
2021/04/29 09:26:08;;;;;;;17.38;8.90;;;13.70;71.30;;;;;;5055454;28;20043;-76
2021/04/29 09:28:44;;;;;;;19.58;6.68;;;13.70;69.60;;;;;;5073163;28;20047;-76
2021/04/29 09:31:13;;;;;;;15.57;6.25;;;13.70;69.30;;;;;;5072518;28;20035;-76
2021/04/29 09:33:44;;;;;;;18.40;6.65;;;13.60;69.40;;;;;;5069360;28;20020;-76
2021/04/29 09:36:26;;;;;;;14.20;6.90;;;13.70;68.10;;;;;;5070736;28;20024;-72
2021/04/29 09:39:00;;;;;;;15.17;6.67;;;13.90;68.90;;;;;;5072735;28;20036;-72
2021/04/29 09:41:48;;;;;;;18.35;5.72;;;13.90;68.60;;;;;;5072790;28;20480;-72
2021/04/29 09:44:14;;;;;;;22.33;6.68;;;13.80;67.20;;;;;;5072535;28;20031;-72
2021/04/29 09:46:44;;;;;;;22.63;8.07;;;13.60;67.60;;;;;;5074739;28;20496;-75
2021/04/29 09:49:26;;;;;;;14.93;6.15;;;13.70;67.90;;;;;;5073345;28;20028;-72
2021/04/29 09:51:54;;;;;;;10.63;6.40;;;13.90;67.50;;;;;;5074196;28;20476;-74
2021/04/29 09:54:30;;;;;;;18.40;6.90;;;14.00;67.00;;;;;;5074526;28;20028;-74
2021/04/29 09:56:57;;;;;;;21.27;6.45;;;13.90;66.00;;;;;;5074720;28;20460;-74
2021/04/29 09:59:28;;;;;;;13.05;6.20;;;14.00;67.00;;;;;;5073280;28;20020;-74
2021/04/29 10:01:55;;;;;;;11.70;6.07;;;14.00;65.60;;;;;;5074157;28;20032;-73
2021/04/29 10:04:25;;;;;;;15.68;6.85;;;13.90;66.20;;;;;;5074587;28;20412;-74
2021/04/29 10:06:53;;;;;;;17.40;6.85;;;13.80;66.20;;;;;;5072870;28;20039;-74
2021/04/29 10:09:26;;;;;;;15.50;6.85;;;13.70;66.50;;;;;;5074267;28;20032;-75
2021/04/29 10:11:57;;;;;;;13.82;5.95;;;13.70;67.10;;;;;;5074026;28;20024;-73
2021/04/29 10:14:25;;;;;;;12.15;6.50;;;13.70;66.80;;;;;;5074467;28;20119;-73
2021/04/29 10:16:52;;;;;;;8.55;6.28;;;13.90;65.90;;;;;;5074285;28;20029;-74
2021/04/29 10:19:18;;;;;;;15.45;6.82;;;14.10;65.80;;;;;;5074206;28;20017;-74
2021/04/29 10:21:44;;;;;;;10.82;6.40;;;14.50;64.90;;;;;;5073772;28;20488;-72
2021/04/29 10:24:11;;;;;;;9.07;5.43;;;14.80;64.30;;;;;;5073148;28;20024;-72
2021/04/29 10:26:40;;;;;;;11.98;5.60;;;15.00;62.70;;;;;;5073165;28;20467;-72
2021/04/29 10:29:07;;;;;;;9.00;6.18;;;15.00;61.00;;;;;;5073203;28;20492;-72
2021/04/29 10:31:35;;;;;;;8.77;5.90;;;15.00;60.90;;;;;;5071895;28;20101;-72
2021/04/29 10:34:08;;;;;;;13.68;5.50;;;15.30;60.90;;;;;;5072991;28;20025;-72
2021/04/29 10:36:34;;;;;;;9.50;6.65;;;15.30;59.40;;;;;;5071876;28;20032;-72
2021/04/29 10:39:10;;;;;;;10.80;7.00;;;15.50;59.50;;;;;;5071662;28;20495;-73
2021/04/29 10:41:36;;;;;;;19.92;5.93;;;15.50;59.20;;;;;;5071769;28;20021;-72
2021/04/29 10:44:12;;;;;;;17.92;5.70;;;15.50;59.80;;;;;;5072445;28;20025;-72
2021/04/29 10:46:39;;;;;;;9.98;5.57;;;15.50;60.90;;;;;;5072708;28;20041;-72
2021/04/29 10:49:06;;;;;;;13.55;6.50;;;15.30;60.90;;;;;;5072514;28;20785;-74
2021/04/29 10:51:35;;;;;;;9.93;5.18;;;15.40;60.90;;;;;;5070821;28;20021;-72
2021/04/29 10:54:15;;;;;;;16.30;6.38;;;15.30;60.80;;;;;;5052694;28;20052;-72
2021/04/29 10:56:42;;;;;;;10.80;4.75;;;15.30;62.50;;;;;;5060673;28;20028;-73
2021/04/29 10:59:13;;;;;;;14.05;5.82;;;15.50;60.30;;;;;;5072308;28;20460;-73
2021/04/29 11:01:44;;;;;;;17.52;5.15;;;15.90;59.60;;;;;;5072626;28;20028;-73
2021/04/29 11:04:23;;;;;;;11.50;4.85;;;15.90;58.10;;;;;;5070995;28;20082;-73
2021/04/29 11:06:49;;;;;;;22.70;4.97;;;15.70;59.10;;;;;;5072659;28;20029;-73
2021/04/29 11:09:25;;;;;;;10.18;5.05;;;15.80;58.20;;;;;;5072334;28;20027;-73
2021/04/29 11:12:06;;;;;;;8.63;4.55;;;16.00;57.40;;;;;;5072397;28;20028;-73
2021/04/29 11:14:44;;;;;;;12.13;4.35;;;15.80;57.30;;;;;;5063327;28;20025;-73
2021/04/29 11:17:21;;;;;;;15.60;5.75;;;15.90;57.60;;;;;;5072434;28;20476;-73
2021/04/29 11:19:48;;;;;;;11.27;5.15;;;16.20;56.70;;;;;;5065277;28;20021;-74
2021/04/29 11:22:33;;;;;;;14.45;6.68;;;16.20;56.10;;;;;;5071050;28;20028;-71
2021/04/29 11:25:00;;;;;;;20.92;7.32;;;15.90;57.40;;;;;;5065536;28;20186;-71
2021/04/29 11:27:34;;;;;;;25.05;7.85;;;15.80;58.30;;;;;;5070724;28;20392;-71
2021/04/29 11:30:05;;;;;;;28.50;7.55;;;15.90;57.40;;;;;;5070104;28;20031;-76
2021/04/29 11:32:33;;;;;;;11.45;4.45;;;16.20;57.00;;;;;;5070445;28;20626;-72
2021/04/29 11:35:00;;;;;;;12.70;4.60;;;16.70;55.40;;;;;;5070578;28;20032;-73
2021/04/29 11:37:26;;;;;;;11.48;4.80;;;16.80;54.00;;;;;;5069351;28;20112;-73
2021/04/29 11:40:01;;;;;;;28.58;5.38;;;17.00;54.60;;;;;;5068792;28;20052;-73
2021/04/29 11:42:29;;;;;;;19.38;5.15;;;16.80;54.90;;;;;;5068472;28;20024;-73
2021/04/29 11:45:05;;;;;;;13.68;4.20;;;16.70;55.80;;;;;;5070969;28;20027;-73
2021/04/29 11:47:31;;;;;;;11.60;4.82;;;16.90;55.70;;;;;;5070163;28;20106;-73
2021/04/29 11:49:57;;;;;;;9.32;4.00;;;17.20;54.00;;;;;;5070757;28;20059;-73
2021/04/29 11:52:23;;;;;;;16.42;4.75;;;17.70;53.10;;;;;;5069932;28;20416;-73
2021/04/29 11:54:49;;;;;;;20.77;6.03;;;18.20;51.20;;;;;;5069614;28;20020;-73
2021/04/29 11:57:16;;;;;;;10.63;5.15;;;18.00;51.50;;;;;;5069354;28;20024;-73
2021/04/29 11:59:48;;;;;;;26.27;4.55;;;17.90;51.40;;;;;;5067596;28;20554;-72
2021/04/29 12:02:13;;;;;;;12.20;4.05;;;17.70;52.10;;;;;;5069533;28;20472;-73
2021/04/29 12:04:42;;;;;;;11.38;4.20;;;17.40;53.10;;;;;;5069736;28;20036;-73
2021/04/29 12:07:08;;;;;;;7.03;3.63;;;17.20;54.10;;;;;;5069194;28;20016;-73
2021/04/29 12:09:33;;;;;;;24.98;4.35;;;17.30;53.90;;;;;;5069592;28;20488;-73
2021/04/29 12:12:16;;;;;;;10.18;4.47;;;17.30;53.70;;;;;;5069609;28;20040;-73
2021/04/29 12:14:53;;;;;;;14.40;5.13;;;17.30;53.40;;;;;;5064184;28;20028;-73
2021/04/29 12:17:20;;;;;;;24.08;4.35;;;17.30;53.80;;;;;;5070068;28;20031;-73
2021/04/29 12:19:54;;;;;;;19.02;4.63;;;17.20;54.60;;;;;;5070491;28;20027;-74
2021/04/29 12:22:23;;;;;;;9.55;4.07;;;17.10;54.30;;;;;;5069593;28;20424;-73
2021/04/29 12:24:49;;;;;;;11.32;4.60;;;17.00;54.60;;;;;;5070054;28;20052;-73
2021/04/29 12:27:20;;;;;;;27.58;4.68;;;16.90;55.40;;;;;;5068480;28;20020;-73
2021/04/29 12:30:00;;;;;;;20.77;4.70;;;17.20;55.20;;;;;;5070229;28;20031;-73
2021/04/29 12:32:41;;;;;;;20.75;4.63;;;17.10;55.20;;;;;;5073412;22;20033;-73
2021/04/29 12:35:08;;;;;;;14.82;4.03;;;16.90;55.40;;;;;;5049172;28;20021;-74
2021/04/29 12:37:34;;;;;;;24.73;3.92;;;16.90;55.80;;;;;;5050786;28;20056;-73
2021/04/29 12:39:59;;;;;;;9.27;4.63;;;16.90;55.60;;;;;;5050612;28;20021;-74
2021/04/29 12:42:25;;;;;;;7.72;4.30;;;16.80;55.70;;;;;;5048755;28;20083;-74
2021/04/29 12:44:58;;;;;;;14.70;4.60;;;16.70;55.70;;;;;;5047609;28;20099;-74
2021/04/29 12:47:29;;;;;;;11.82;4.50;;;16.60;56.30;;;;;;5048795;28;20095;-73
2021/04/29 12:50:02;;;;;;;17.38;4.72;;;16.40;57.00;;;;;;5049043;28;20492;-74
2021/04/29 12:52:29;;;;;;;8.07;4.22;;;16.30;57.00;;;;;;5031550;28;20105;-74
2021/04/29 12:54:55;;;;;;;21.42;5.45;;;16.50;56.70;;;;;;5043423;28;20041;-74
2021/04/29 12:57:25;;;;;;;12.45;5.40;;;16.30;57.00;;;;;;5050000;28;20033;-74
2021/04/29 12:59:53;;;;;;;16.27;5.13;;;16.60;56.90;;;;;;5048296;28;20061;-74
2021/04/29 13:02:26;;;;;;;19.50;5.15;;;16.70;56.40;;;;;;5049810;28;20566;-74
2021/04/29 13:05:22;;;;;;;16.73;4.20;;;16.40;57.10;;;;;;5045541;28;20426;-74
2021/04/29 13:07:48;;;;;;;15.73;4.15;;;16.50;57.00;;;;;;5061473;28;20056;-72